Terminal Aerodrome Forecast
Issued by NWS Twin Cities, MN

Home | Current Version | Previous Version | Graphics & Text | Print | Product List | Glossary On
Versions: 1 2 3 4 5 6 7 8 9 10 11 12 13 14 15 16 17 18 19
000
FTUS43 KMPX 222339
TAFSTC
TAF
KSTC 222339Z 2300/2324 VRB04KT P6SM FEW250
     FM230200 09006KT P6SM BKN250
     FM231200 12008KT P6SM VCSH SCT040 BKN110
      TEMPO 2314/2318 3SM TSRA BKN035CB
     FM232200 15010KT 6SM -SHRA BKN050=

USA.gov is the U.S. government's official web portal to all federal, state and local government web resources and services.